sensor_id;sensor_type;location;lat;lon;timestamp;P1;durP1;ratioP1;P2;durP2;ratioP2
9424;SDS011;17139;52.140;11.636;2023-09-19T00:00:15;0.60;;;0.60;;
9424;SDS011;17139;52.140;11.636;2023-09-19T00:02:44;0.52;;;0.52;;
9424;SDS011;17139;52.140;11.636;2023-09-19T00:05:12;0.73;;;0.73;;
9424;SDS011;17139;52.140;11.636;2023-09-19T00:07:40;1.00;;;1.00;;
9424;SDS011;17139;52.140;11.636;2023-09-19T00:10:07;1.60;;;0.60;;
9424;SDS011;17139;52.140;11.636;2023-09-19T00:12:36;0.70;;;0.70;;
9424;SDS011;17139;52.140;11.636;2023-09-19T00:15:05;1.85;;;0.98;;
9424;SDS011;17139;52.140;11.636;2023-09-19T00:17:32;0.73;;;0.73;;
9424;SDS011;17139;52.140;11.636;2023-09-19T00:19:59;1.13;;;0.80;;
9424;SDS011;17139;52.140;11.636;2023-09-19T00:22:39;1.38;;;0.50;;
9424;SDS011;17139;52.140;11.636;2023-09-19T00:25:08;0.60;;;0.60;;
9424;SDS011;17139;52.140;11.636;2023-09-19T00:27:36;0.57;;;0.50;;
9424;SDS011;17139;52.140;11.636;2023-09-19T00:30:08;0.50;;;0.50;;
9424;SDS011;17139;52.140;11.636;2023-09-19T00:32:41;0.43;;;0.43;;
9424;SDS011;17139;52.140;11.636;2023-09-19T00:35:09;0.40;;;0.40;;
9424;SDS011;17139;52.140;11.636;2023-09-19T00:37:36;0.50;;;0.50;;
9424;SDS011;17139;52.140;11.636;2023-09-19T00:40:05;0.50;;;0.50;;
9424;SDS011;17139;52.140;11.636;2023-09-19T00:42:35;0.47;;;0.47;;
9424;SDS011;17139;52.140;11.636;2023-09-19T00:45:03;0.57;;;0.57;;
9424;SDS011;17139;52.140;11.636;2023-09-19T00:47:32;0.60;;;0.60;;
9424;SDS011;17139;52.140;11.636;2023-09-19T00:50:00;0.52;;;0.52;;
9424;SDS011;17139;52.140;11.636;2023-09-19T00:52:29;0.63;;;0.63;;
9424;SDS011;17139;52.140;11.636;2023-09-19T00:54:57;0.50;;;0.50;;
9424;SDS011;17139;52.140;11.636;2023-09-19T00:57:25;1.65;;;0.43;;
9424;SDS011;17139;52.140;11.636;2023-09-19T00:59:53;1.27;;;1.02;;
9424;SDS011;17139;52.140;11.636;2023-09-19T01:02:21;0.40;;;0.40;;
9424;SDS011;17139;52.140;11.636;2023-09-19T01:04:50;0.70;;;0.60;;
9424;SDS011;17139;52.140;11.636;2023-09-19T01:07:18;1.48;;;0.50;;
9424;SDS011;17139;52.140;11.636;2023-09-19T01:09:46;0.63;;;0.63;;
9424;SDS011;17139;52.140;11.636;2023-09-19T01:12:13;0.45;;;0.45;;
9424;SDS011;17139;52.140;11.636;2023-09-19T01:14:50;0.50;;;0.50;;
9424;SDS011;17139;52.140;11.636;2023-09-19T01:17:29;0.60;;;0.60;;
9424;SDS011;17139;52.140;11.636;2023-09-19T01:20:15;0.55;;;0.55;;
9424;SDS011;17139;52.140;11.636;2023-09-19T01:23:00;0.60;;;0.60;;
9424;SDS011;17139;52.140;11.636;2023-09-19T01:25:58;0.45;;;0.45;;
9424;SDS011;17139;52.140;11.636;2023-09-19T01:28:51;0.65;;;0.65;;
9424;SDS011;17139;52.140;11.636;2023-09-19T01:31:22;1.58;;;1.48;;
9424;SDS011;17139;52.140;11.636;2023-09-19T01:33:54;0.80;;;0.80;;
9424;SDS011;17139;52.140;11.636;2023-09-19T01:36:28;1.00;;;0.90;;
9424;SDS011;17139;52.140;11.636;2023-09-19T01:38:58;0.60;;;0.60;;
9424;SDS011;17139;52.140;11.636;2023-09-19T01:41:33;0.65;;;0.65;;
9424;SDS011;17139;52.140;11.636;2023-09-19T01:44:09;0.60;;;0.60;;
9424;SDS011;17139;52.140;11.636;2023-09-19T01:46:44;0.73;;;0.73;;
9424;SDS011;17139;52.140;11.636;2023-09-19T01:49:16;3.22;;;0.75;;
9424;SDS011;17139;52.140;11.636;2023-09-19T01:51:53;1.20;;;0.90;;
9424;SDS011;17139;52.140;11.636;2023-09-19T01:54:30;1.15;;;0.98;;
9424;SDS011;17139;52.140;11.636;2023-09-19T01:57:05;0.90;;;0.90;;
9424;SDS011;17139;52.140;11.636;2023-09-19T01:59:37;0.50;;;0.50;;
9424;SDS011;17139;52.140;11.636;2023-09-19T02:02:13;1.30;;;0.85;;
9424;SDS011;17139;52.140;11.636;2023-09-19T02:04:42;0.90;;;0.90;;
9424;SDS011;17139;52.140;11.636;2023-09-19T02:07:09;1.10;;;0.98;;
9424;SDS011;17139;52.140;11.636;2023-09-19T02:09:36;0.98;;;0.98;;
9424;SDS011;17139;52.140;11.636;2023-09-19T02:12:04;1.10;;;1.10;;
9424;SDS011;17139;52.140;11.636;2023-09-19T02:14:32;0.82;;;0.82;;
9424;SDS011;17139;52.140;11.636;2023-09-19T02:17:01;1.08;;;1.08;;
9424;SDS011;17139;52.140;11.636;2023-09-19T02:19:32;0.90;;;0.90;;
9424;SDS011;17139;52.140;11.636;2023-09-19T02:21:59;0.88;;;0.85;;
9424;SDS011;17139;52.140;11.636;2023-09-19T02:24:28;0.90;;;0.90;;
9424;SDS011;17139;52.140;11.636;2023-09-19T02:26:56;1.95;;;1.00;;
9424;SDS011;17139;52.140;11.636;2023-09-19T02:29:24;1.20;;;1.15;;
9424;SDS011;17139;52.140;11.636;2023-09-19T02:31:52;1.77;;;1.33;;
9424;SDS011;17139;52.140;11.636;2023-09-19T02:34:21;1.40;;;1.15;;
9424;SDS011;17139;52.140;11.636;2023-09-19T02:36:50;1.58;;;1.42;;
9424;SDS011;17139;52.140;11.636;2023-09-19T02:39:18;1.17;;;1.17;;
9424;SDS011;17139;52.140;11.636;2023-09-19T02:41:46;1.58;;;1.02;;
9424;SDS011;17139;52.140;11.636;2023-09-19T02:44:13;1.10;;;1.10;;
9424;SDS011;17139;52.140;11.636;2023-09-19T02:46:40;1.23;;;1.13;;
9424;SDS011;17139;52.140;11.636;2023-09-19T02:49:08;0.90;;;0.90;;
9424;SDS011;17139;52.140;11.636;2023-09-19T02:51:36;1.13;;;1.10;;
9424;SDS011;17139;52.140;11.636;2023-09-19T02:54:04;0.80;;;0.80;;
9424;SDS011;17139;52.140;11.636;2023-09-19T02:56:32;1.60;;;1.23;;
9424;SDS011;17139;52.140;11.636;2023-09-19T02:59:01;1.27;;;1.20;;
9424;SDS011;17139;52.140;11.636;2023-09-19T03:01:28;1.33;;;1.23;;
9424;SDS011;17139;52.140;11.636;2023-09-19T03:03:56;1.10;;;1.10;;
9424;SDS011;17139;52.140;11.636;2023-09-19T03:06:23;1.25;;;1.25;;
9424;SDS011;17139;52.140;11.636;2023-09-19T03:08:50;1.35;;;1.35;;
9424;SDS011;17139;52.140;11.636;2023-09-19T03:11:19;1.08;;;1.08;;
9424;SDS011;17139;52.140;11.636;2023-09-19T03:13:50;1.20;;;1.10;;
9424;SDS011;17139;52.140;11.636;2023-09-19T03:16:18;1.02;;;1.02;;
9424;SDS011;17139;52.140;11.636;2023-09-19T03:18:47;1.55;;;1.48;;
9424;SDS011;17139;52.140;11.636;2023-09-19T03:21:14;1.33;;;1.33;;
9424;SDS011;17139;52.140;11.636;2023-09-19T03:23:42;3.53;;;1.48;;
9424;SDS011;17139;52.140;11.636;2023-09-19T03:26:11;1.20;;;1.20;;
9424;SDS011;17139;52.140;11.636;2023-09-19T03:28:41;1.90;;;1.27;;
9424;SDS011;17139;52.140;11.636;2023-09-19T03:31:08;1.35;;;1.35;;
9424;SDS011;17139;52.140;11.636;2023-09-19T03:33:36;1.20;;;1.20;;
9424;SDS011;17139;52.140;11.636;2023-09-19T03:36:03;1.50;;;1.50;;
9424;SDS011;17139;52.140;11.636;2023-09-19T03:38:31;1.80;;;1.70;;
9424;SDS011;17139;52.140;11.636;2023-09-19T03:40:59;1.58;;;1.58;;
9424;SDS011;17139;52.140;11.636;2023-09-19T03:43:27;1.95;;;1.85;;
9424;SDS011;17139;52.140;11.636;2023-09-19T03:45:55;2.35;;;2.05;;
9424;SDS011;17139;52.140;11.636;2023-09-19T03:48:22;1.98;;;1.73;;
9424;SDS011;17139;52.140;11.636;2023-09-19T03:50:49;2.25;;;1.98;;
9424;SDS011;17139;52.140;11.636;2023-09-19T03:53:17;1.70;;;1.60;;
9424;SDS011;17139;52.140;11.636;2023-09-19T03:55:45;1.50;;;1.50;;
9424;SDS011;17139;52.140;11.636;2023-09-19T03:58:12;1.70;;;1.60;;
9424;SDS011;17139;52.140;11.636;2023-09-19T04:00:39;2.20;;;1.90;;
9424;SDS011;17139;52.140;11.636;2023-09-19T04:03:08;2.10;;;2.00;;
9424;SDS011;17139;52.140;11.636;2023-09-19T04:05:43;2.20;;;2.10;;
9424;SDS011;17139;52.140;11.636;2023-09-19T04:08:11;2.03;;;1.92;;
9424;SDS011;17139;52.140;11.636;2023-09-19T04:10:38;1.83;;;1.73;;
9424;SDS011;17139;52.140;11.636;2023-09-19T04:13:05;1.90;;;1.80;;
9424;SDS011;17139;52.140;11.636;2023-09-19T04:15:32;2.10;;;1.90;;
9424;SDS011;17139;52.140;11.636;2023-09-19T04:17:59;2.05;;;1.95;;
9424;SDS011;17139;52.140;11.636;2023-09-19T04:20:29;2.80;;;2.30;;
9424;SDS011;17139;52.140;11.636;2023-09-19T04:22:57;4.65;;;1.67;;
9424;SDS011;17139;52.140;11.636;2023-09-19T04:25:25;2.05;;;1.95;;
9424;SDS011;17139;52.140;11.636;2023-09-19T04:27:52;2.42;;;1.80;;
9424;SDS011;17139;52.140;11.636;2023-09-19T04:30:19;1.65;;;1.55;;
9424;SDS011;17139;52.140;11.636;2023-09-19T04:32:46;2.05;;;1.95;;
9424;SDS011;17139;52.140;11.636;2023-09-19T04:35:15;2.23;;;2.03;;
9424;SDS011;17139;52.140;11.636;2023-09-19T04:37:44;2.53;;;2.33;;
9424;SDS011;17139;52.140;11.636;2023-09-19T04:40:13;1.85;;;1.75;;
9424;SDS011;17139;52.140;11.636;2023-09-19T04:42:42;2.40;;;2.30;;
9424;SDS011;17139;52.140;11.636;2023-09-19T04:45:10;3.10;;;1.95;;
9424;SDS011;17139;52.140;11.636;2023-09-19T04:47:37;1.95;;;1.85;;
9424;SDS011;17139;52.140;11.636;2023-09-19T04:50:06;1.42;;;1.33;;
9424;SDS011;17139;52.140;11.636;2023-09-19T04:52:37;3.55;;;1.88;;
9424;SDS011;17139;52.140;11.636;2023-09-19T04:55:09;2.30;;;2.00;;
9424;SDS011;17139;52.140;11.636;2023-09-19T04:57:42;1.95;;;1.50;;
9424;SDS011;17139;52.140;11.636;2023-09-19T05:00:11;1.52;;;1.52;;
9424;SDS011;17139;52.140;11.636;2023-09-19T05:02:40;1.92;;;1.83;;
9424;SDS011;17139;52.140;11.636;2023-09-19T05:05:08;1.88;;;1.77;;
9424;SDS011;17139;52.140;11.636;2023-09-19T05:07:36;2.10;;;1.90;;
9424;SDS011;17139;52.140;11.636;2023-09-19T05:10:03;2.38;;;1.70;;
9424;SDS011;17139;52.140;11.636;2023-09-19T05:12:34;1.70;;;1.60;;
9424;SDS011;17139;52.140;11.636;2023-09-19T05:15:01;2.28;;;1.65;;
9424;SDS011;17139;52.140;11.636;2023-09-19T05:17:29;1.55;;;1.42;;
9424;SDS011;17139;52.140;11.636;2023-09-19T05:19:56;6.65;;;1.95;;
9424;SDS011;17139;52.140;11.636;2023-09-19T05:22:26;1.98;;;1.70;;
9424;SDS011;17139;52.140;11.636;2023-09-19T05:24:54;1.67;;;1.58;;
9424;SDS011;17139;52.140;11.636;2023-09-19T05:27:21;2.17;;;1.80;;
9424;SDS011;17139;52.140;11.636;2023-09-19T05:29:49;1.83;;;1.55;;
9424;SDS011;17139;52.140;11.636;2023-09-19T05:32:18;1.80;;;1.70;;
9424;SDS011;17139;52.140;11.636;2023-09-19T05:34:45;2.03;;;1.92;;
9424;SDS011;17139;52.140;11.636;2023-09-19T05:37:13;2.03;;;1.92;;
9424;SDS011;17139;52.140;11.636;2023-09-19T05:39:41;1.60;;;1.60;;
9424;SDS011;17139;52.140;11.636;2023-09-19T05:42:08;3.20;;;1.90;;
9424;SDS011;17139;52.140;11.636;2023-09-19T05:44:35;5.50;;;2.15;;
9424;SDS011;17139;52.140;11.636;2023-09-19T05:47:04;2.15;;;2.05;;
9424;SDS011;17139;52.140;11.636;2023-09-19T05:49:34;1.85;;;1.75;;
9424;SDS011;17139;52.140;11.636;2023-09-19T05:52:03;2.35;;;1.90;;
9424;SDS011;17139;52.140;11.636;2023-09-19T05:54:31;3.20;;;1.85;;
9424;SDS011;17139;52.140;11.636;2023-09-19T05:56:59;1.92;;;1.77;;
9424;SDS011;17139;52.140;11.636;2023-09-19T05:59:26;2.05;;;1.88;;
9424;SDS011;17139;52.140;11.636;2023-09-19T06:01:54;1.70;;;1.60;;
9424;SDS011;17139;52.140;11.636;2023-09-19T06:04:22;3.63;;;1.90;;
9424;SDS011;17139;52.140;11.636;2023-09-19T06:06:50;3.88;;;1.90;;
9424;SDS011;17139;52.140;11.636;2023-09-19T06:09:17;1.90;;;1.80;;
9424;SDS011;17139;52.140;11.636;2023-09-19T06:11:45;3.40;;;2.03;;
9424;SDS011;17139;52.140;11.636;2023-09-19T06:14:11;1.10;;;1.10;;
9424;SDS011;17139;52.140;11.636;2023-09-19T06:16:39;2.55;;;1.92;;
9424;SDS011;17139;52.140;11.636;2023-09-19T06:19:07;2.45;;;1.80;;
9424;SDS011;17139;52.140;11.636;2023-09-19T06:21:35;2.72;;;1.77;;
9424;SDS011;17139;52.140;11.636;2023-09-19T06:24:02;3.00;;;1.77;;
9424;SDS011;17139;52.140;11.636;2023-09-19T06:26:30;2.20;;;1.88;;
9424;SDS011;17139;52.140;11.636;2023-09-19T06:28:57;2.78;;;2.28;;
9424;SDS011;17139;52.140;11.636;2023-09-19T06:31:24;2.13;;;1.98;;
9424;SDS011;17139;52.140;11.636;2023-09-19T06:33:52;1.77;;;1.67;;
9424;SDS011;17139;52.140;11.636;2023-09-19T06:36:19;6.22;;;1.80;;
9424;SDS011;17139;52.140;11.636;2023-09-19T06:38:48;2.53;;;2.03;;
9424;SDS011;17139;52.140;11.636;2023-09-19T06:41:16;2.90;;;1.92;;
9424;SDS011;17139;52.140;11.636;2023-09-19T06:43:43;2.08;;;1.90;;
9424;SDS011;17139;52.140;11.636;2023-09-19T06:46:10;3.10;;;2.10;;
9424;SDS011;17139;52.140;11.636;2023-09-19T06:48:38;3.90;;;2.17;;
9424;SDS011;17139;52.140;11.636;2023-09-19T06:51:05;2.63;;;2.25;;
9424;SDS011;17139;52.140;11.636;2023-09-19T06:53:33;3.78;;;2.30;;
9424;SDS011;17139;52.140;11.636;2023-09-19T06:56:02;6.32;;;2.50;;
9424;SDS011;17139;52.140;11.636;2023-09-19T06:58:30;3.00;;;1.88;;
9424;SDS011;17139;52.140;11.636;2023-09-19T07:00:57;2.03;;;1.88;;
9424;SDS011;17139;52.140;11.636;2023-09-19T07:03:24;3.28;;;1.90;;
9424;SDS011;17139;52.140;11.636;2023-09-19T07:05:53;3.78;;;2.38;;
9424;SDS011;17139;52.140;11.636;2023-09-19T07:08:21;2.00;;;1.90;;
9424;SDS011;17139;52.140;11.636;2023-09-19T07:10:48;4.20;;;2.55;;
9424;SDS011;17139;52.140;11.636;2023-09-19T07:13:19;2.67;;;1.85;;
9424;SDS011;17139;52.140;11.636;2023-09-19T07:15:46;2.00;;;1.90;;
9424;SDS011;17139;52.140;11.636;2023-09-19T07:18:15;2.45;;;1.85;;
9424;SDS011;17139;52.140;11.636;2023-09-19T07:20:43;2.25;;;2.15;;
9424;SDS011;17139;52.140;11.636;2023-09-19T07:23:14;2.83;;;2.28;;
9424;SDS011;17139;52.140;11.636;2023-09-19T07:25:41;1.95;;;1.85;;
9424;SDS011;17139;52.140;11.636;2023-09-19T07:28:08;2.55;;;2.20;;
9424;SDS011;17139;52.140;11.636;2023-09-19T07:30:37;4.00;;;2.30;;
9424;SDS011;17139;52.140;11.636;2023-09-19T07:33:04;3.08;;;2.47;;
9424;SDS011;17139;52.140;11.636;2023-09-19T07:35:32;3.40;;;1.67;;
9424;SDS011;17139;52.140;11.636;2023-09-19T07:37:59;2.42;;;2.00;;
9424;SDS011;17139;52.140;11.636;2023-09-19T07:40:27;2.10;;;1.70;;
9424;SDS011;17139;52.140;11.636;2023-09-19T07:42:55;2.20;;;2.05;;
9424;SDS011;17139;52.140;11.636;2023-09-19T07:45:22;7.68;;;2.22;;
9424;SDS011;17139;52.140;11.636;2023-09-19T07:47:51;3.80;;;2.08;;
9424;SDS011;17139;52.140;11.636;2023-09-19T07:50:19;4.85;;;2.20;;
9424;SDS011;17139;52.140;11.636;2023-09-19T07:52:46;3.00;;;2.00;;
9424;SDS011;17139;52.140;11.636;2023-09-19T07:55:16;5.00;;;2.22;;
9424;SDS011;17139;52.140;11.636;2023-09-19T07:57:44;2.53;;;1.92;;
9424;SDS011;17139;52.140;11.636;2023-09-19T08:00:12;3.35;;;1.95;;
9424;SDS011;17139;52.140;11.636;2023-09-19T08:02:40;3.10;;;1.90;;
9424;SDS011;17139;52.140;11.636;2023-09-19T08:05:09;2.20;;;2.00;;
9424;SDS011;17139;52.140;11.636;2023-09-19T08:07:37;7.57;;;2.38;;
9424;SDS011;17139;52.140;11.636;2023-09-19T08:10:05;4.80;;;1.95;;
9424;SDS011;17139;52.140;11.636;2023-09-19T08:12:38;5.82;;;2.10;;
9424;SDS011;17139;52.140;11.636;2023-09-19T08:15:11;5.00;;;2.35;;
9424;SDS011;17139;52.140;11.636;2023-09-19T08:17:38;7.57;;;1.77;;
9424;SDS011;17139;52.140;11.636;2023-09-19T08:20:06;9.00;;;2.38;;
9424;SDS011;17139;52.140;11.636;2023-09-19T08:22:42;2.65;;;1.73;;
9424;SDS011;17139;52.140;11.636;2023-09-19T08:25:11;5.20;;;2.22;;
9424;SDS011;17139;52.140;11.636;2023-09-19T08:27:38;5.32;;;2.30;;
9424;SDS011;17139;52.140;11.636;2023-09-19T08:30:06;5.25;;;1.75;;
9424;SDS011;17139;52.140;11.636;2023-09-19T08:32:33;5.30;;;2.13;;
9424;SDS011;17139;52.140;11.636;2023-09-19T08:35:00;6.75;;;2.78;;
9424;SDS011;17139;52.140;11.636;2023-09-19T08:37:31;3.78;;;2.03;;
9424;SDS011;17139;52.140;11.636;2023-09-19T08:39:58;2.78;;;2.00;;
9424;SDS011;17139;52.140;11.636;2023-09-19T08:42:25;10.10;;;2.60;;
9424;SDS011;17139;52.140;11.636;2023-09-19T08:44:52;7.78;;;2.55;;
9424;SDS011;17139;52.140;11.636;2023-09-19T08:47:21;7.35;;;2.10;;
9424;SDS011;17139;52.140;11.636;2023-09-19T08:49:58;3.38;;;1.92;;
9424;SDS011;17139;52.140;11.636;2023-09-19T08:52:32;5.13;;;2.80;;
9424;SDS011;17139;52.140;11.636;2023-09-19T08:55:03;4.32;;;2.40;;
9424;SDS011;17139;52.140;11.636;2023-09-19T08:57:36;8.45;;;1.83;;
9424;SDS011;17139;52.140;11.636;2023-09-19T09:00:07;9.73;;;2.45;;
9424;SDS011;17139;52.140;11.636;2023-09-19T09:02:37;2.08;;;1.52;;
9424;SDS011;17139;52.140;11.636;2023-09-19T09:05:06;8.38;;;2.28;;
9424;SDS011;17139;52.140;11.636;2023-09-19T09:07:36;2.13;;;1.75;;
9424;SDS011;17139;52.140;11.636;2023-09-19T09:10:04;4.75;;;1.77;;
9424;SDS011;17139;52.140;11.636;2023-09-19T09:12:32;2.38;;;2.17;;
9424;SDS011;17139;52.140;11.636;2023-09-19T09:15:01;4.00;;;2.25;;
9424;SDS011;17139;52.140;11.636;2023-09-19T09:17:30;3.50;;;1.95;;
9424;SDS011;17139;52.140;11.636;2023-09-19T09:19:58;6.35;;;1.80;;
9424;SDS011;17139;52.140;11.636;2023-09-19T09:22:25;2.38;;;2.05;;
9424;SDS011;17139;52.140;11.636;2023-09-19T09:24:53;4.40;;;1.60;;
9424;SDS011;17139;52.140;11.636;2023-09-19T09:27:23;2.05;;;1.92;;
9424;SDS011;17139;52.140;11.636;2023-09-19T09:29:51;1.13;;;1.13;;
9424;SDS011;17139;52.140;11.636;2023-09-19T09:32:20;1.52;;;1.38;;
9424;SDS011;17139;52.140;11.636;2023-09-19T09:34:50;3.43;;;1.87;;
9424;SDS011;17139;52.140;11.636;2023-09-19T09:37:18;2.80;;;1.90;;
9424;SDS011;17139;52.140;11.636;2023-09-19T09:39:49;8.93;;;1.98;;
9424;SDS011;17139;52.140;11.636;2023-09-19T09:42:32;3.90;;;1.30;;
9424;SDS011;17139;52.140;11.636;2023-09-19T09:45:14;4.60;;;2.00;;
9424;SDS011;17139;52.140;11.636;2023-09-19T09:47:43;6.60;;;2.00;;
9424;SDS011;17139;52.140;11.636;2023-09-19T09:50:28;1.77;;;1.35;;
9424;SDS011;17139;52.140;11.636;2023-09-19T09:53:05;1.52;;;1.42;;
9424;SDS011;17139;52.140;11.636;2023-09-19T09:55:59;2.88;;;1.67;;
9424;SDS011;17139;52.140;11.636;2023-09-19T09:58:29;2.78;;;1.75;;
9424;SDS011;17139;52.140;11.636;2023-09-19T10:00:57;4.47;;;1.65;;
9424;SDS011;17139;52.140;11.636;2023-09-19T10:03:31;1.67;;;1.50;;
9424;SDS011;17139;52.140;11.636;2023-09-19T10:06:03;1.52;;;1.42;;
9424;SDS011;17139;52.140;11.636;2023-09-19T10:08:57;1.55;;;1.45;;
9424;SDS011;17139;52.140;11.636;2023-09-19T10:11:29;1.98;;;1.23;;
9424;SDS011;17139;52.140;11.636;2023-09-19T10:13:57;1.65;;;1.58;;
9424;SDS011;17139;52.140;11.636;2023-09-19T10:16:31;3.60;;;1.77;;
9424;SDS011;17139;52.140;11.636;2023-09-19T10:19:01;1.98;;;1.75;;
9424;SDS011;17139;52.140;11.636;2023-09-19T10:21:31;2.53;;;1.90;;
9424;SDS011;17139;52.140;11.636;2023-09-19T10:23:58;2.97;;;1.83;;
9424;SDS011;17139;52.140;11.636;2023-09-19T10:26:30;1.80;;;1.65;;
9424;SDS011;17139;52.140;11.636;2023-09-19T10:28:58;6.93;;;2.15;;
9424;SDS011;17139;52.140;11.636;2023-09-19T10:31:27;2.10;;;1.63;;
9424;SDS011;17139;52.140;11.636;2023-09-19T10:33:55;3.53;;;1.90;;
9424;SDS011;17139;52.140;11.636;2023-09-19T10:36:23;3.85;;;1.30;;
9424;SDS011;17139;52.140;11.636;2023-09-19T10:38:52;1.70;;;1.60;;
9424;SDS011;17139;52.140;11.636;2023-09-19T10:41:21;3.42;;;1.50;;
9424;SDS011;17139;52.140;11.636;2023-09-19T10:43:49;1.60;;;1.50;;
9424;SDS011;17139;52.140;11.636;2023-09-19T10:46:21;4.72;;;1.98;;
9424;SDS011;17139;52.140;11.636;2023-09-19T10:48:48;1.88;;;1.77;;
9424;SDS011;17139;52.140;11.636;2023-09-19T10:51:20;3.60;;;1.75;;
9424;SDS011;17139;52.140;11.636;2023-09-19T10:53:51;2.00;;;1.60;;
9424;SDS011;17139;52.140;11.636;2023-09-19T10:56:21;3.93;;;1.67;;
9424;SDS011;17139;52.140;11.636;2023-09-19T10:59:04;1.88;;;1.50;;
9424;SDS011;17139;52.140;11.636;2023-09-19T11:01:43;1.73;;;1.20;;
9424;SDS011;17139;52.140;11.636;2023-09-19T11:06:59;1.55;;;1.45;;
9424;SDS011;17139;52.140;11.636;2023-09-19T11:09:43;1.60;;;1.50;;
9424;SDS011;17139;52.140;11.636;2023-09-19T11:12:11;2.83;;;1.80;;
9424;SDS011;17139;52.140;11.636;2023-09-19T11:14:39;2.78;;;2.00;;
9424;SDS011;17139;52.140;11.636;2023-09-19T11:17:31;1.50;;;1.40;;
9424;SDS011;17139;52.140;11.636;2023-09-19T11:20:21;2.55;;;1.63;;
9424;SDS011;17139;52.140;11.636;2023-09-19T11:23:19;2.78;;;1.60;;
9424;SDS011;17139;52.140;11.636;2023-09-19T11:25:49;3.67;;;1.50;;
9424;SDS011;17139;52.140;11.636;2023-09-19T11:28:28;1.77;;;1.35;;
9424;SDS011;17139;52.140;11.636;2023-09-19T11:30:58;1.75;;;1.65;;
9424;SDS011;17139;52.140;11.636;2023-09-19T11:33:47;5.88;;;1.80;;
9424;SDS011;17139;52.140;11.636;2023-09-19T11:36:35;5.10;;;2.10;;
9424;SDS011;17139;52.140;11.636;2023-09-19T11:39:03;5.05;;;1.60;;
9424;SDS011;17139;52.140;11.636;2023-09-19T11:41:54;2.80;;;1.80;;
9424;SDS011;17139;52.140;11.636;2023-09-19T11:44:31;3.78;;;1.60;;
9424;SDS011;17139;52.140;11.636;2023-09-19T11:47:03;2.28;;;2.03;;
9424;SDS011;17139;52.140;11.636;2023-09-19T11:49:33;3.45;;;1.70;;
9424;SDS011;17139;52.140;11.636;2023-09-19T11:52:02;3.47;;;1.60;;
9424;SDS011;17139;52.140;11.636;2023-09-19T11:54:32;1.50;;;1.40;;
9424;SDS011;17139;52.140;11.636;2023-09-19T11:56:59;6.13;;;1.92;;
9424;SDS011;17139;52.140;11.636;2023-09-19T11:59:28;3.58;;;1.70;;
9424;SDS011;17139;52.140;11.636;2023-09-19T12:01:58;2.03;;;1.90;;
9424;SDS011;17139;52.140;11.636;2023-09-19T12:04:35;2.00;;;1.88;;
9424;SDS011;17139;52.140;11.636;2023-09-19T12:07:04;2.15;;;1.73;;
9424;SDS011;17139;52.140;11.636;2023-09-19T12:09:36;2.00;;;1.83;;
9424;SDS011;17139;52.140;11.636;2023-09-19T12:12:07;5.55;;;2.00;;
9424;SDS011;17139;52.140;11.636;2023-09-19T12:14:37;6.25;;;1.77;;
9424;SDS011;17139;52.140;11.636;2023-09-19T12:17:07;2.60;;;1.80;;
9424;SDS011;17139;52.140;11.636;2023-09-19T12:19:35;3.47;;;1.85;;
9424;SDS011;17139;52.140;11.636;2023-09-19T12:22:03;1.50;;;1.50;;
9424;SDS011;17139;52.140;11.636;2023-09-19T12:24:30;6.25;;;1.88;;
9424;SDS011;17139;52.140;11.636;2023-09-19T12:27:00;1.73;;;1.63;;
9424;SDS011;17139;52.140;11.636;2023-09-19T12:29:29;3.60;;;2.20;;
9424;SDS011;17139;52.140;11.636;2023-09-19T12:31:58;1.83;;;1.73;;
9424;SDS011;17139;52.140;11.636;2023-09-19T12:34:29;6.57;;;1.80;;
9424;SDS011;17139;52.140;11.636;2023-09-19T12:37:07;1.85;;;1.75;;
9424;SDS011;17139;52.140;11.636;2023-09-19T12:39:41;3.45;;;2.10;;
9424;SDS011;17139;52.140;11.636;2023-09-19T12:42:09;2.30;;;2.20;;
9424;SDS011;17139;52.140;11.636;2023-09-19T12:44:40;3.60;;;2.30;;
9424;SDS011;17139;52.140;11.636;2023-09-19T12:47:10;4.38;;;1.70;;
9424;SDS011;17139;52.140;11.636;2023-09-19T12:52:45;1.65;;;1.55;;
9424;SDS011;17139;52.140;11.636;2023-09-19T12:55:20;2.55;;;2.15;;
9424;SDS011;17139;52.140;11.636;2023-09-19T12:57:58;2.63;;;1.90;;
9424;SDS011;17139;52.140;11.636;2023-09-19T13:00:34;1.88;;;1.77;;
9424;SDS011;17139;52.140;11.636;2023-09-19T13:03:12;16.05;;;2.45;;
9424;SDS011;17139;52.140;11.636;2023-09-19T13:05:50;2.33;;;2.13;;
9424;SDS011;17139;52.140;11.636;2023-09-19T13:08:23;3.42;;;1.95;;
9424;SDS011;17139;52.140;11.636;2023-09-19T13:11:00;5.45;;;1.98;;
9424;SDS011;17139;52.140;11.636;2023-09-19T13:13:34;2.00;;;1.90;;
9424;SDS011;17139;52.140;11.636;2023-09-19T13:16:03;3.42;;;1.83;;
9424;SDS011;17139;52.140;11.636;2023-09-19T13:18:41;1.85;;;1.75;;
9424;SDS011;17139;52.140;11.636;2023-09-19T13:21:10;3.42;;;2.22;;
9424;SDS011;17139;52.140;11.636;2023-09-19T13:23:42;1.80;;;1.70;;
9424;SDS011;17139;52.140;11.636;2023-09-19T13:26:09;2.90;;;2.10;;
9424;SDS011;17139;52.140;11.636;2023-09-19T13:28:37;2.10;;;1.67;;
9424;SDS011;17139;52.140;11.636;2023-09-19T13:31:04;3.08;;;2.38;;
9424;SDS011;17139;52.140;11.636;2023-09-19T13:33:33;4.15;;;1.83;;
9424;SDS011;17139;52.140;11.636;2023-09-19T13:36:00;6.32;;;2.03;;
9424;SDS011;17139;52.140;11.636;2023-09-19T13:38:28;3.67;;;2.20;;
9424;SDS011;17139;52.140;11.636;2023-09-19T13:40:56;2.78;;;2.22;;
9424;SDS011;17139;52.140;11.636;2023-09-19T13:43:26;4.22;;;2.50;;
9424;SDS011;17139;52.140;11.636;2023-09-19T13:45:54;4.07;;;2.00;;
9424;SDS011;17139;52.140;11.636;2023-09-19T13:48:22;2.15;;;1.95;;
9424;SDS011;17139;52.140;11.636;2023-09-19T13:50:49;2.08;;;1.85;;
9424;SDS011;17139;52.140;11.636;2023-09-19T13:53:16;2.17;;;2.08;;
9424;SDS011;17139;52.140;11.636;2023-09-19T13:55:44;1.67;;;1.58;;
9424;SDS011;17139;52.140;11.636;2023-09-19T13:58:13;4.78;;;2.40;;
9424;SDS011;17139;52.140;11.636;2023-09-19T14:00:42;2.05;;;1.80;;
9424;SDS011;17139;52.140;11.636;2023-09-19T14:03:09;2.65;;;2.30;;
9424;SDS011;17139;52.140;11.636;2023-09-19T14:05:36;6.10;;;1.83;;
9424;SDS011;17139;52.140;11.636;2023-09-19T14:08:04;2.88;;;2.30;;
9424;SDS011;17139;52.140;11.636;2023-09-19T14:10:31;4.32;;;2.10;;
9424;SDS011;17139;52.140;11.636;2023-09-19T14:12:59;6.35;;;2.22;;
9424;SDS011;17139;52.140;11.636;2023-09-19T14:15:28;4.25;;;2.10;;
9424;SDS011;17139;52.140;11.636;2023-09-19T14:17:56;2.33;;;2.13;;
9424;SDS011;17139;52.140;11.636;2023-09-19T14:20:24;10.10;;;2.53;;
9424;SDS011;17139;52.140;11.636;2023-09-19T14:22:52;2.22;;;1.70;;
9424;SDS011;17139;52.140;11.636;2023-09-19T14:25:20;3.28;;;2.20;;
9424;SDS011;17139;52.140;11.636;2023-09-19T14:27:47;4.95;;;2.28;;
9424;SDS011;17139;52.140;11.636;2023-09-19T14:30:14;4.20;;;2.22;;
9424;SDS011;17139;52.140;11.636;2023-09-19T14:32:43;2.63;;;2.17;;
9424;SDS011;17139;52.140;11.636;2023-09-19T14:35:12;5.75;;;2.35;;
9424;SDS011;17139;52.140;11.636;2023-09-19T14:37:40;1.92;;;1.83;;
9424;SDS011;17139;52.140;11.636;2023-09-19T14:40:07;8.45;;;2.50;;
9424;SDS011;17139;52.140;11.636;2023-09-19T14:42:35;5.75;;;2.60;;
9424;SDS011;17139;52.140;11.636;2023-09-19T14:45:05;3.67;;;2.03;;
9424;SDS011;17139;52.140;11.636;2023-09-19T14:47:33;4.07;;;2.28;;
9424;SDS011;17139;52.140;11.636;2023-09-19T14:50:02;4.40;;;2.47;;
9424;SDS011;17139;52.140;11.636;2023-09-19T14:52:31;3.53;;;2.03;;
9424;SDS011;17139;52.140;11.636;2023-09-19T14:54:58;7.18;;;2.08;;
9424;SDS011;17139;52.140;11.636;2023-09-19T14:57:26;3.85;;;2.40;;
9424;SDS011;17139;52.140;11.636;2023-09-19T14:59:54;2.38;;;1.77;;
9424;SDS011;17139;52.140;11.636;2023-09-19T15:02:21;2.35;;;2.15;;
9424;SDS011;17139;52.140;11.636;2023-09-19T15:04:48;2.60;;;2.40;;
9424;SDS011;17139;52.140;11.636;2023-09-19T15:07:17;5.18;;;1.90;;
9424;SDS011;17139;52.140;11.636;2023-09-19T15:09:44;3.97;;;2.50;;